sensor_id;sensor_type;location;lat;lon;timestamp;temperature;humidity
60701;DHT22;46541;49.894;10.886;2023-04-06T00:01:20;2.60;99.90
60701;DHT22;46541;49.894;10.886;2023-04-06T00:03:47;2.60;99.90
60701;DHT22;46541;49.894;10.886;2023-04-06T00:06:15;2.50;99.90
60701;DHT22;46541;49.894;10.886;2023-04-06T00:08:43;2.50;99.90
60701;DHT22;46541;49.894;10.886;2023-04-06T00:11:11;2.50;99.90
60701;DHT22;46541;49.894;10.886;2023-04-06T00:13:37;2.50;99.90
60701;DHT22;46541;49.894;10.886;2023-04-06T00:16:04;2.50;99.90
60701;DHT22;46541;49.894;10.886;2023-04-06T00:18:32;2.50;99.90
60701;DHT22;46541;49.894;10.886;2023-04-06T00:20:59;2.40;99.90
60701;DHT22;46541;49.894;10.886;2023-04-06T00:23:26;2.40;99.90
60701;DHT22;46541;49.894;10.886;2023-04-06T00:25:52;2.40;99.90
60701;DHT22;46541;49.894;10.886;2023-04-06T00:28:19;2.50;99.90
60701;DHT22;46541;49.894;10.886;2023-04-06T00:30:54;2.50;99.90
60701;DHT22;46541;49.894;10.886;2023-04-06T00:33:22;2.40;99.90
60701;DHT22;46541;49.894;10.886;2023-04-06T00:35:50;2.40;99.90
60701;DHT22;46541;49.894;10.886;2023-04-06T00:38:17;2.40;99.90
60701;DHT22;46541;49.894;10.886;2023-04-06T00:40:44;2.50;99.90
60701;DHT22;46541;49.894;10.886;2023-04-06T00:43:14;2.50;99.90
60701;DHT22;46541;49.894;10.886;2023-04-06T00:45:41;2.50;99.90
60701;DHT22;46541;49.894;10.886;2023-04-06T00:48:09;2.50;99.90
60701;DHT22;46541;49.894;10.886;2023-04-06T00:50:35;2.40;99.90
60701;DHT22;46541;49.894;10.886;2023-04-06T00:53:02;2.40;99.90
60701;DHT22;46541;49.894;10.886;2023-04-06T00:55:29;2.40;99.90
60701;DHT22;46541;49.894;10.886;2023-04-06T00:57:58;2.40;99.90
60701;DHT22;46541;49.894;10.886;2023-04-06T01:00:25;2.40;99.90
60701;DHT22;46541;49.894;10.886;2023-04-06T01:02:52;2.30;99.90
60701;DHT22;46541;49.894;10.886;2023-04-06T01:05:19;2.30;99.90
60701;DHT22;46541;49.894;10.886;2023-04-06T01:07:46;2.20;99.90
60701;DHT22;46541;49.894;10.886;2023-04-06T01:10:23;2.30;99.90
60701;DHT22;46541;49.894;10.886;2023-04-06T01:12:50;2.20;99.90
60701;DHT22;46541;49.894;10.886;2023-04-06T01:15:17;2.20;99.90
60701;DHT22;46541;49.894;10.886;2023-04-06T01:17:44;2.20;99.90
60701;DHT22;46541;49.894;10.886;2023-04-06T01:20:11;2.10;99.90
60701;DHT22;46541;49.894;10.886;2023-04-06T01:22:38;2.10;99.90
60701;DHT22;46541;49.894;10.886;2023-04-06T01:25:05;2.10;99.90
60701;DHT22;46541;49.894;10.886;2023-04-06T01:27:32;2.10;99.90
60701;DHT22;46541;49.894;10.886;2023-04-06T01:29:59;2.10;99.90
60701;DHT22;46541;49.894;10.886;2023-04-06T01:32:26;2.10;99.90
60701;DHT22;46541;49.894;10.886;2023-04-06T01:34:52;2.10;99.90
60701;DHT22;46541;49.894;10.886;2023-04-06T01:37:21;2.10;99.90
60701;DHT22;46541;49.894;10.886;2023-04-06T01:39:48;2.10;99.90
60701;DHT22;46541;49.894;10.886;2023-04-06T01:42:14;2.00;99.90
60701;DHT22;46541;49.894;10.886;2023-04-06T01:44:41;2.00;99.90
60701;DHT22;46541;49.894;10.886;2023-04-06T01:47:08;2.00;99.90
60701;DHT22;46541;49.894;10.886;2023-04-06T01:49:34;2.00;99.90
60701;DHT22;46541;49.894;10.886;2023-04-06T01:52:01;2.00;99.90
60701;DHT22;46541;49.894;10.886;2023-04-06T01:54:28;1.90;99.90
60701;DHT22;46541;49.894;10.886;2023-04-06T01:56:55;1.90;99.90
60701;DHT22;46541;49.894;10.886;2023-04-06T01:59:21;1.90;99.90
60701;DHT22;46541;49.894;10.886;2023-04-06T02:01:48;1.90;99.90
60701;DHT22;46541;49.894;10.886;2023-04-06T02:04:15;1.90;99.90
60701;DHT22;46541;49.894;10.886;2023-04-06T02:06:42;1.90;99.90
60701;DHT22;46541;49.894;10.886;2023-04-06T02:09:08;1.80;99.90
60701;DHT22;46541;49.894;10.886;2023-04-06T02:11:35;1.80;99.90
60701;DHT22;46541;49.894;10.886;2023-04-06T02:14:02;1.80;99.90
60701;DHT22;46541;49.894;10.886;2023-04-06T02:16:29;1.80;99.90
60701;DHT22;46541;49.894;10.886;2023-04-06T02:18:56;1.80;99.90
60701;DHT22;46541;49.894;10.886;2023-04-06T02:21:23;1.70;99.90
60701;DHT22;46541;49.894;10.886;2023-04-06T02:23:49;1.80;99.90
60701;DHT22;46541;49.894;10.886;2023-04-06T02:26:16;1.80;99.90
60701;DHT22;46541;49.894;10.886;2023-04-06T02:28:43;1.70;99.90
60701;DHT22;46541;49.894;10.886;2023-04-06T02:31:10;1.70;99.90
60701;DHT22;46541;49.894;10.886;2023-04-06T02:33:37;1.70;99.90
60701;DHT22;46541;49.894;10.886;2023-04-06T02:36:04;1.70;99.90
60701;DHT22;46541;49.894;10.886;2023-04-06T02:38:31;1.70;99.90
60701;DHT22;46541;49.894;10.886;2023-04-06T02:40:58;1.70;99.90
60701;DHT22;46541;49.894;10.886;2023-04-06T02:43:25;1.70;99.90
60701;DHT22;46541;49.894;10.886;2023-04-06T02:45:51;1.70;99.90
60701;DHT22;46541;49.894;10.886;2023-04-06T02:48:18;1.70;99.90
60701;DHT22;46541;49.894;10.886;2023-04-06T02:50:45;1.70;99.90
60701;DHT22;46541;49.894;10.886;2023-04-06T02:53:12;1.60;99.90
60701;DHT22;46541;49.894;10.886;2023-04-06T02:55:38;1.60;99.90
60701;DHT22;46541;49.894;10.886;2023-04-06T02:58:05;1.60;99.90
60701;DHT22;46541;49.894;10.886;2023-04-06T03:00:32;1.60;99.90
60701;DHT22;46541;49.894;10.886;2023-04-06T03:02:59;1.60;99.90
60701;DHT22;46541;49.894;10.886;2023-04-06T03:05:26;1.60;99.90
60701;DHT22;46541;49.894;10.886;2023-04-06T03:07:53;1.60;99.90
60701;DHT22;46541;49.894;10.886;2023-04-06T03:10:19;1.60;99.90
60701;DHT22;46541;49.894;10.886;2023-04-06T03:12:46;1.60;99.90
60701;DHT22;46541;49.894;10.886;2023-04-06T03:15:13;1.50;99.90
60701;DHT22;46541;49.894;10.886;2023-04-06T03:17:40;1.50;99.90
60701;DHT22;46541;49.894;10.886;2023-04-06T03:20:07;1.50;99.90
60701;DHT22;46541;49.894;10.886;2023-04-06T03:22:34;1.50;99.90
60701;DHT22;46541;49.894;10.886;2023-04-06T03:25:01;1.50;99.90
60701;DHT22;46541;49.894;10.886;2023-04-06T03:27:29;1.40;99.90
60701;DHT22;46541;49.894;10.886;2023-04-06T03:29:56;1.40;99.90
60701;DHT22;46541;49.894;10.886;2023-04-06T03:32:22;1.40;99.90
60701;DHT22;46541;49.894;10.886;2023-04-06T03:34:49;1.40;99.90
60701;DHT22;46541;49.894;10.886;2023-04-06T03:37:16;1.40;99.90
60701;DHT22;46541;49.894;10.886;2023-04-06T03:39:43;1.30;99.90
60701;DHT22;46541;49.894;10.886;2023-04-06T03:42:10;1.40;99.90
60701;DHT22;46541;49.894;10.886;2023-04-06T03:44:36;1.40;99.90
60701;DHT22;46541;49.894;10.886;2023-04-06T03:47:03;1.30;99.90
60701;DHT22;46541;49.894;10.886;2023-04-06T03:49:30;1.30;99.90
60701;DHT22;46541;49.894;10.886;2023-04-06T03:51:57;1.20;99.90
60701;DHT22;46541;49.894;10.886;2023-04-06T03:54:24;1.20;99.90
60701;DHT22;46541;49.894;10.886;2023-04-06T03:56:50;1.20;99.90
60701;DHT22;46541;49.894;10.886;2023-04-06T03:59:17;1.20;99.90
60701;DHT22;46541;49.894;10.886;2023-04-06T04:01:44;1.20;99.90
60701;DHT22;46541;49.894;10.886;2023-04-06T04:04:10;1.20;99.90
60701;DHT22;46541;49.894;10.886;2023-04-06T04:06:37;1.20;99.90
60701;DHT22;46541;49.894;10.886;2023-04-06T04:09:04;1.20;99.90
60701;DHT22;46541;49.894;10.886;2023-04-06T04:11:31;1.20;99.90
60701;DHT22;46541;49.894;10.886;2023-04-06T04:13:58;1.10;99.90
60701;DHT22;46541;49.894;10.886;2023-04-06T04:16:24;1.10;99.90
60701;DHT22;46541;49.894;10.886;2023-04-06T04:18:51;1.10;99.90
60701;DHT22;46541;49.894;10.886;2023-04-06T04:21:18;1.10;99.90
60701;DHT22;46541;49.894;10.886;2023-04-06T04:23:45;1.10;99.90
60701;DHT22;46541;49.894;10.886;2023-04-06T04:26:12;1.10;99.90
60701;DHT22;46541;49.894;10.886;2023-04-06T04:28:38;1.10;99.90
60701;DHT22;46541;49.894;10.886;2023-04-06T04:31:05;1.00;99.90
60701;DHT22;46541;49.894;10.886;2023-04-06T04:33:32;1.00;99.90
60701;DHT22;46541;49.894;10.886;2023-04-06T04:35:59;1.00;99.90
60701;DHT22;46541;49.894;10.886;2023-04-06T04:38:26;1.10;99.90
60701;DHT22;46541;49.894;10.886;2023-04-06T04:40:52;1.10;99.90
60701;DHT22;46541;49.894;10.886;2023-04-06T04:43:19;1.00;99.90
60701;DHT22;46541;49.894;10.886;2023-04-06T04:45:46;1.00;99.90
60701;DHT22;46541;49.894;10.886;2023-04-06T04:48:13;1.00;99.90
60701;DHT22;46541;49.894;10.886;2023-04-06T04:50:40;1.10;99.90
60701;DHT22;46541;49.894;10.886;2023-04-06T04:53:06;1.10;99.90
60701;DHT22;46541;49.894;10.886;2023-04-06T04:55:33;1.10;99.90
60701;DHT22;46541;49.894;10.886;2023-04-06T04:58:00;1.10;99.90
60701;DHT22;46541;49.894;10.886;2023-04-06T05:00:28;1.10;99.90
60701;DHT22;46541;49.894;10.886;2023-04-06T05:02:55;1.10;99.90
60701;DHT22;46541;49.894;10.886;2023-04-06T05:05:22;1.10;99.90
60701;DHT22;46541;49.894;10.886;2023-04-06T05:07:49;1.10;99.90
60701;DHT22;46541;49.894;10.886;2023-04-06T05:10:16;1.10;99.90
60701;DHT22;46541;49.894;10.886;2023-04-06T05:12:43;1.10;99.90
60701;DHT22;46541;49.894;10.886;2023-04-06T05:15:10;1.10;99.90
60701;DHT22;46541;49.894;10.886;2023-04-06T05:17:37;1.20;99.90
60701;DHT22;46541;49.894;10.886;2023-04-06T05:20:04;1.20;99.90
60701;DHT22;46541;49.894;10.886;2023-04-06T05:22:31;1.20;99.90
60701;DHT22;46541;49.894;10.886;2023-04-06T05:24:58;1.20;99.90
60701;DHT22;46541;49.894;10.886;2023-04-06T05:27:25;1.20;99.90
60701;DHT22;46541;49.894;10.886;2023-04-06T05:29:52;1.30;99.90
60701;DHT22;46541;49.894;10.886;2023-04-06T05:32:21;1.30;99.90
60701;DHT22;46541;49.894;10.886;2023-04-06T05:34:49;1.30;99.90
60701;DHT22;46541;49.894;10.886;2023-04-06T05:37:16;1.30;99.90
60701;DHT22;46541;49.894;10.886;2023-04-06T05:39:43;1.30;99.90
60701;DHT22;46541;49.894;10.886;2023-04-06T05:42:10;1.40;99.90
60701;DHT22;46541;49.894;10.886;2023-04-06T05:44:37;1.40;99.90
60701;DHT22;46541;49.894;10.886;2023-04-06T05:47:05;1.40;99.90
60701;DHT22;46541;49.894;10.886;2023-04-06T05:49:31;1.50;99.90
60701;DHT22;46541;49.894;10.886;2023-04-06T05:51:58;1.50;99.90
60701;DHT22;46541;49.894;10.886;2023-04-06T05:54:25;1.50;99.90
60701;DHT22;46541;49.894;10.886;2023-04-06T05:56:52;1.60;99.90
60701;DHT22;46541;49.894;10.886;2023-04-06T05:59:19;1.60;99.90
60701;DHT22;46541;49.894;10.886;2023-04-06T06:01:47;1.50;99.90
60701;DHT22;46541;49.894;10.886;2023-04-06T06:04:14;1.60;99.90
60701;DHT22;46541;49.894;10.886;2023-04-06T06:06:41;1.50;99.90
60701;DHT22;46541;49.894;10.886;2023-04-06T06:09:07;1.50;99.90
60701;DHT22;46541;49.894;10.886;2023-04-06T06:11:35;1.60;99.90
60701;DHT22;46541;49.894;10.886;2023-04-06T06:14:01;1.60;99.90
60701;DHT22;46541;49.894;10.886;2023-04-06T06:16:28;1.60;99.90
60701;DHT22;46541;49.894;10.886;2023-04-06T06:18:55;1.60;99.90
60701;DHT22;46541;49.894;10.886;2023-04-06T06:21:22;1.70;99.90
60701;DHT22;46541;49.894;10.886;2023-04-06T06:23:49;1.70;99.90
60701;DHT22;46541;49.894;10.886;2023-04-06T06:26:16;1.80;99.90
60701;DHT22;46541;49.894;10.886;2023-04-06T06:28:43;1.80;99.90
60701;DHT22;46541;49.894;10.886;2023-04-06T06:31:10;1.90;99.90
60701;DHT22;46541;49.894;10.886;2023-04-06T06:33:37;2.10;99.90
60701;DHT22;46541;49.894;10.886;2023-04-06T06:36:04;2.10;99.90
60701;DHT22;46541;49.894;10.886;2023-04-06T06:38:31;2.20;99.90
60701;DHT22;46541;49.894;10.886;2023-04-06T06:40:57;2.30;99.90
60701;DHT22;46541;49.894;10.886;2023-04-06T06:43:24;2.40;99.90
60701;DHT22;46541;49.894;10.886;2023-04-06T06:45:51;2.40;99.90
60701;DHT22;46541;49.894;10.886;2023-04-06T06:48:18;2.50;99.90
60701;DHT22;46541;49.894;10.886;2023-04-06T06:50:47;2.50;99.90
60701;DHT22;46541;49.894;10.886;2023-04-06T06:53:14;2.60;99.90
60701;DHT22;46541;49.894;10.886;2023-04-06T06:55:41;2.70;99.90
60701;DHT22;46541;49.894;10.886;2023-04-06T06:58:10;2.80;99.90
60701;DHT22;46541;49.894;10.886;2023-04-06T07:00:37;3.00;99.90
60701;DHT22;46541;49.894;10.886;2023-04-06T07:03:04;3.10;99.90
60701;DHT22;46541;49.894;10.886;2023-04-06T07:05:31;3.10;99.90
60701;DHT22;46541;49.894;10.886;2023-04-06T07:07:58;3.30;99.90
60701;DHT22;46541;49.894;10.886;2023-04-06T07:10:25;3.40;99.90
60701;DHT22;46541;49.894;10.886;2023-04-06T07:12:52;3.50;99.90
60701;DHT22;46541;49.894;10.886;2023-04-06T07:15:19;3.60;99.90
60701;DHT22;46541;49.894;10.886;2023-04-06T07:17:46;3.80;99.90
60701;DHT22;46541;49.894;10.886;2023-04-06T07:20:13;3.90;99.90
60701;DHT22;46541;49.894;10.886;2023-04-06T07:22:42;4.10;99.90
60701;DHT22;46541;49.894;10.886;2023-04-06T07:25:09;4.20;99.90
60701;DHT22;46541;49.894;10.886;2023-04-06T07:27:36;4.40;99.90
60701;DHT22;46541;49.894;10.886;2023-04-06T07:30:03;4.50;99.90
60701;DHT22;46541;49.894;10.886;2023-04-06T07:32:30;4.70;99.90
60701;DHT22;46541;49.894;10.886;2023-04-06T07:34:57;4.80;99.90
60701;DHT22;46541;49.894;10.886;2023-04-06T07:37:24;5.00;99.90
60701;DHT22;46541;49.894;10.886;2023-04-06T07:39:51;5.00;99.90
60701;DHT22;46541;49.894;10.886;2023-04-06T07:42:18;5.30;99.90
60701;DHT22;46541;49.894;10.886;2023-04-06T07:44:45;5.40;99.90
60701;DHT22;46541;49.894;10.886;2023-04-06T07:47:12;5.60;99.90
60701;DHT22;46541;49.894;10.886;2023-04-06T07:49:38;5.70;99.90
60701;DHT22;46541;49.894;10.886;2023-04-06T07:52:05;5.90;99.90
60701;DHT22;46541;49.894;10.886;2023-04-06T07:54:32;6.00;99.90
60701;DHT22;46541;49.894;10.886;2023-04-06T07:56:58;6.20;99.90
60701;DHT22;46541;49.894;10.886;2023-04-06T07:59:25;6.20;99.90
60701;DHT22;46541;49.894;10.886;2023-04-06T08:01:52;6.40;99.90
60701;DHT22;46541;49.894;10.886;2023-04-06T08:04:20;6.50;99.90
60701;DHT22;46541;49.894;10.886;2023-04-06T08:06:47;6.80;99.70
60701;DHT22;46541;49.894;10.886;2023-04-06T08:09:13;7.20;98.00
60701;DHT22;46541;49.894;10.886;2023-04-06T08:11:40;7.60;96.70
60701;DHT22;46541;49.894;10.886;2023-04-06T08:14:07;7.90;95.50
60701;DHT22;46541;49.894;10.886;2023-04-06T08:16:34;8.00;94.80
60701;DHT22;46541;49.894;10.886;2023-04-06T08:19:01;8.00;94.20
60701;DHT22;46541;49.894;10.886;2023-04-06T08:21:28;8.10;94.10
60701;DHT22;46541;49.894;10.886;2023-04-06T08:23:55;8.10;93.80
60701;DHT22;46541;49.894;10.886;2023-04-06T08:26:21;8.20;93.70
60701;DHT22;46541;49.894;10.886;2023-04-06T08:28:48;8.20;92.90
60701;DHT22;46541;49.894;10.886;2023-04-06T08:31:15;8.30;92.60
60701;DHT22;46541;49.894;10.886;2023-04-06T08:33:42;8.50;92.90
60701;DHT22;46541;49.894;10.886;2023-04-06T08:36:10;8.60;92.50
60701;DHT22;46541;49.894;10.886;2023-04-06T08:38:38;8.70;91.10
60701;DHT22;46541;49.894;10.886;2023-04-06T08:41:12;8.80;90.70
60701;DHT22;46541;49.894;10.886;2023-04-06T08:43:48;8.90;90.60
60701;DHT22;46541;49.894;10.886;2023-04-06T08:46:15;9.10;90.30
60701;DHT22;46541;49.894;10.886;2023-04-06T08:48:43;9.10;90.20
60701;DHT22;46541;49.894;10.886;2023-04-06T08:51:10;9.30;90.20
60701;DHT22;46541;49.894;10.886;2023-04-06T08:53:38;9.40;88.20
60701;DHT22;46541;49.894;10.886;2023-04-06T08:56:05;9.70;86.90
60701;DHT22;46541;49.894;10.886;2023-04-06T08:58:37;9.60;82.90
60701;DHT22;46541;49.894;10.886;2023-04-06T09:01:10;9.80;81.00
60701;DHT22;46541;49.894;10.886;2023-04-06T09:03:39;9.80;79.40
60701;DHT22;46541;49.894;10.886;2023-04-06T09:06:08;9.80;77.90
60701;DHT22;46541;49.894;10.886;2023-04-06T09:08:38;10.00;78.50
60701;DHT22;46541;49.894;10.886;2023-04-06T09:11:05;10.10;76.00
60701;DHT22;46541;49.894;10.886;2023-04-06T09:13:32;10.40;76.40
60701;DHT22;46541;49.894;10.886;2023-04-06T09:16:10;10.50;75.20
60701;DHT22;46541;49.894;10.886;2023-04-06T09:18:37;10.70;74.80
60701;DHT22;46541;49.894;10.886;2023-04-06T09:21:05;10.70;71.80
60701;DHT22;46541;49.894;10.886;2023-04-06T09:23:33;10.90;72.20
60701;DHT22;46541;49.894;10.886;2023-04-06T09:26:13;11.00;71.20
60701;DHT22;46541;49.894;10.886;2023-04-06T09:28:49;11.30;70.30
60701;DHT22;46541;49.894;10.886;2023-04-06T09:31:27;11.50;70.20
60701;DHT22;46541;49.894;10.886;2023-04-06T09:33:54;11.70;67.50
60701;DHT22;46541;49.894;10.886;2023-04-06T09:38:59;11.40;66.30
60701;DHT22;46541;49.894;10.886;2023-04-06T09:41:27;11.70;65.00
60701;DHT22;46541;49.894;10.886;2023-04-06T09:44:14;11.80;63.60
60701;DHT22;46541;49.894;10.886;2023-04-06T09:46:43;12.10;63.20
60701;DHT22;46541;49.894;10.886;2023-04-06T09:49:30;12.20;61.50
60701;DHT22;46541;49.894;10.886;2023-04-06T09:52:02;12.30;58.80
60701;DHT22;46541;49.894;10.886;2023-04-06T09:54:30;12.50;58.30
60701;DHT22;46541;49.894;10.886;2023-04-06T10:02:46;12.30;58.20
60701;DHT22;46541;49.894;10.886;2023-04-06T10:05:23;12.20;57.80
60701;DHT22;46541;49.894;10.886;2023-04-06T10:07:55;12.60;56.50
60701;DHT22;46541;49.894;10.886;2023-04-06T10:10:28;12.80;56.40
60701;DHT22;46541;49.894;10.886;2023-04-06T10:12:56;12.90;54.60
60701;DHT22;46541;49.894;10.886;2023-04-06T10:15:23;13.20;55.00
60701;DHT22;46541;49.894;10.886;2023-04-06T10:17:51;13.30;54.10
60701;DHT22;46541;49.894;10.886;2023-04-06T10:20:28;12.90;53.20
60701;DHT22;46541;49.894;10.886;2023-04-06T10:25:55;13.20;53.10
60701;DHT22;46541;49.894;10.886;2023-04-06T10:28:23;13.30;53.40
60701;DHT22;46541;49.894;10.886;2023-04-06T10:30:59;13.40;51.80
60701;DHT22;46541;49.894;10.886;2023-04-06T10:33:27;13.30;52.70
60701;DHT22;46541;49.894;10.886;2023-04-06T10:35:54;13.40;51.70
60701;DHT22;46541;49.894;10.886;2023-04-06T10:38:33;13.50;51.20
60701;DHT22;46541;49.894;10.886;2023-04-06T10:41:07;13.70;51.90
60701;DHT22;46541;49.894;10.886;2023-04-06T10:43:36;13.60;50.10
60701;DHT22;46541;49.894;10.886;2023-04-06T10:46:05;13.70;50.80
60701;DHT22;46541;49.894;10.886;2023-04-06T10:48:43;13.50;49.60
60701;DHT22;46541;49.894;10.886;2023-04-06T10:51:13;13.40;48.70
60701;DHT22;46541;49.894;10.886;2023-04-06T10:53:47;13.70;49.00
60701;DHT22;46541;49.894;10.886;2023-04-06T10:56:16;14.10;48.20
60701;DHT22;46541;49.894;10.886;2023-04-06T10:58:45;14.60;46.90
60701;DHT22;46541;49.894;10.886;2023-04-06T11:01:15;15.60;44.80
60701;DHT22;46541;49.894;10.886;2023-04-06T11:03:47;16.30;43.80
60701;DHT22;46541;49.894;10.886;2023-04-06T11:06:19;17.00;42.50
60701;DHT22;46541;49.894;10.886;2023-04-06T11:08:46;17.80;42.40
60701;DHT22;46541;49.894;10.886;2023-04-06T11:11:14;18.70;40.60
60701;DHT22;46541;49.894;10.886;2023-04-06T11:13:53;19.10;39.50
60701;DHT22;46541;49.894;10.886;2023-04-06T11:16:28;19.40;39.70
60701;DHT22;46541;49.894;10.886;2023-04-06T11:19:05;18.80;40.10
60701;DHT22;46541;49.894;10.886;2023-04-06T11:26:37;19.80;38.40
60701;DHT22;46541;49.894;10.886;2023-04-06T11:29:05;18.90;38.60
60701;DHT22;46541;49.894;10.886;2023-04-06T11:31:37;18.40;38.70
60701;DHT22;46541;49.894;10.886;2023-04-06T11:34:09;17.70;40.40
60701;DHT22;46541;49.894;10.886;2023-04-06T11:36:40;17.00;40.60
60701;DHT22;46541;49.894;10.886;2023-04-06T11:39:07;16.40;40.80
60701;DHT22;46541;49.894;10.886;2023-04-06T11:41:34;16.10;41.90
60701;DHT22;46541;49.894;10.886;2023-04-06T11:44:02;15.80;42.60
60701;DHT22;46541;49.894;10.886;2023-04-06T11:46:29;15.60;42.90
60701;DHT22;46541;49.894;10.886;2023-04-06T11:49:00;15.30;43.30
60701;DHT22;46541;49.894;10.886;2023-04-06T11:51:27;15.20;42.60
60701;DHT22;46541;49.894;10.886;2023-04-06T11:53:55;15.10;42.80
60701;DHT22;46541;49.894;10.886;2023-04-06T11:56:28;14.80;43.40
60701;DHT22;46541;49.894;10.886;2023-04-06T11:58:58;14.90;42.90
60701;DHT22;46541;49.894;10.886;2023-04-06T12:01:28;14.90;42.20
60701;DHT22;46541;49.894;10.886;2023-04-06T12:03:57;14.50;43.00
60701;DHT22;46541;49.894;10.886;2023-04-06T12:06:25;14.60;43.80
60701;DHT22;46541;49.894;10.886;2023-04-06T12:08:52;14.50;44.40
60701;DHT22;46541;49.894;10.886;2023-04-06T12:11:19;14.30;44.30
60701;DHT22;46541;49.894;10.886;2023-04-06T12:13:48;14.20;45.20
60701;DHT22;46541;49.894;10.886;2023-04-06T12:16:15;14.20;44.50
60701;DHT22;46541;49.894;10.886;2023-04-06T12:18:42;14.00;44.00
60701;DHT22;46541;49.894;10.886;2023-04-06T12:21:09;14.00;44.70
60701;DHT22;46541;49.894;10.886;2023-04-06T12:23:35;14.10;45.00
60701;DHT22;46541;49.894;10.886;2023-04-06T12:26:03;14.10;46.00
60701;DHT22;46541;49.894;10.886;2023-04-06T12:28:30;14.00;45.00
60701;DHT22;46541;49.894;10.886;2023-04-06T12:30:56;14.00;45.10
60701;DHT22;46541;49.894;10.886;2023-04-06T12:33:23;13.80;45.60
60701;DHT22;46541;49.894;10.886;2023-04-06T12:35:50;14.00;45.90
60701;DHT22;46541;49.894;10.886;2023-04-06T12:38:17;13.90;46.20
60701;DHT22;46541;49.894;10.886;2023-04-06T12:40:44;13.90;46.70
60701;DHT22;46541;49.894;10.886;2023-04-06T12:43:10;13.90;46.60
60701;DHT22;46541;49.894;10.886;2023-04-06T12:45:40;13.60;46.50
60701;DHT22;46541;49.894;10.886;2023-04-06T12:48:07;13.70;47.40
60701;DHT22;46541;49.894;10.886;2023-04-06T12:50:34;13.70;46.70
60701;DHT22;46541;49.894;10.886;2023-04-06T12:53:01;13.90;46.40
60701;DHT22;46541;49.894;10.886;2023-04-06T12:55:29;13.90;45.60
60701;DHT22;46541;49.894;10.886;2023-04-06T12:57:56;14.00;45.90
60701;DHT22;46541;49.894;10.886;2023-04-06T13:00:23;13.90;45.50
60701;DHT22;46541;49.894;10.886;2023-04-06T13:02:50;13.80;46.00
60701;DHT22;46541;49.894;10.886;2023-04-06T13:05:17;13.80;46.00
60701;DHT22;46541;49.894;10.886;2023-04-06T13:07:45;13.80;45.90
60701;DHT22;46541;49.894;10.886;2023-04-06T13:10:13;13.80;45.60
60701;DHT22;46541;49.894;10.886;2023-04-06T13:12:40;13.90;46.30
60701;DHT22;46541;49.894;10.886;2023-04-06T13:15:07;13.80;45.90
60701;DHT22;46541;49.894;10.886;2023-04-06T13:17:34;13.80;46.10
60701;DHT22;46541;49.894;10.886;2023-04-06T13:20:00;13.70;45.40
60701;DHT22;46541;49.894;10.886;2023-04-06T13:22:27;13.70;45.60
60701;DHT22;46541;49.894;10.886;2023-04-06T13:24:54;13.60;46.20
60701;DHT22;46541;49.894;10.886;2023-04-06T13:27:21;13.50;46.10
60701;DHT22;46541;49.894;10.886;2023-04-06T13:29:48;13.40;45.80
60701;DHT22;46541;49.894;10.886;2023-04-06T13:32:14;13.40;46.10
60701;DHT22;46541;49.894;10.886;2023-04-06T13:34:42;13.40;46.30
60701;DHT22;46541;49.894;10.886;2023-04-06T13:37:15;13.30;47.20
60701;DHT22;46541;49.894;10.886;2023-04-06T13:39:42;13.20;47.00
60701;DHT22;46541;49.894;10.886;2023-04-06T13:42:09;13.20;47.30
60701;DHT22;46541;49.894;10.886;2023-04-06T13:44:36;13.20;47.70
60701;DHT22;46541;49.894;10.886;2023-04-06T13:47:03;13.20;46.80
60701;DHT22;46541;49.894;10.886;2023-04-06T13:49:30;13.30;47.50
60701;DHT22;46541;49.894;10.886;2023-04-06T13:51:57;13.40;47.10
60701;DHT22;46541;49.894;10.886;2023-04-06T13:54:23;13.50;47.50
60701;DHT22;46541;49.894;10.886;2023-04-06T13:56:52;13.60;46.50
60701;DHT22;46541;49.894;10.886;2023-04-06T13:59:19;13.70;46.70
60701;DHT22;46541;49.894;10.886;2023-04-06T14:01:47;13.70;46.70
60701;DHT22;46541;49.894;10.886;2023-04-06T14:04:14;13.70;47.20
60701;DHT22;46541;49.894;10.886;2023-04-06T14:06:40;13.90;46.80
60701;DHT22;46541;49.894;10.886;2023-04-06T14:09:07;14.00;46.70
60701;DHT22;46541;49.894;10.886;2023-04-06T14:11:34;14.20;47.00
60701;DHT22;46541;49.894;10.886;2023-04-06T14:14:01;14.30;45.60
60701;DHT22;46541;49.894;10.886;2023-04-06T14:16:28;14.30;46.40
60701;DHT22;46541;49.894;10.886;2023-04-06T14:18:55;14.30;46.00
60701;DHT22;46541;49.894;10.886;2023-04-06T14:21:24;14.30;45.60
60701;DHT22;46541;49.894;10.886;2023-04-06T14:23:51;14.20;45.40
60701;DHT22;46541;49.894;10.886;2023-04-06T14:26:18;14.20;46.00
60701;DHT22;46541;49.894;10.886;2023-04-06T14:28:46;14.10;45.80
60701;DHT22;46541;49.894;10.886;2023-04-06T14:31:13;14.10;45.90
60701;DHT22;46541;49.894;10.886;2023-04-06T14:33:42;14.10;45.10
60701;DHT22;46541;49.894;10.886;2023-04-06T14:36:09;13.90;46.90
60701;DHT22;46541;49.894;10.886;2023-04-06T14:38:36;13.80;46.80
60701;DHT22;46541;49.894;10.886;2023-04-06T14:41:03;13.80;47.40
60701;DHT22;46541;49.894;10.886;2023-04-06T14:43:30;13.70;46.60
60701;DHT22;46541;49.894;10.886;2023-04-06T14:46:01;13.70;47.10
60701;DHT22;46541;49.894;10.886;2023-04-06T14:48:28;13.70;47.50
60701;DHT22;46541;49.894;10.886;2023-04-06T14:50:55;13.60;47.20
60701;DHT22;46541;49.894;10.886;2023-04-06T14:53:23;13.60;48.80
60701;DHT22;46541;49.894;10.886;2023-04-06T14:55:50;13.60;47.90
60701;DHT22;46541;49.894;10.886;2023-04-06T14:58:18;13.60;49.10
60701;DHT22;46541;49.894;10.886;2023-04-06T15:00:45;13.50;47.70
60701;DHT22;46541;49.894;10.886;2023-04-06T15:03:12;13.60;47.50
60701;DHT22;46541;49.894;10.886;2023-04-06T15:05:39;13.60;48.00
60701;DHT22;46541;49.894;10.886;2023-04-06T15:08:07;13.60;48.30
60701;DHT22;46541;49.894;10.886;2023-04-06T15:10:35;13.50;48.10
60701;DHT22;46541;49.894;10.886;2023-04-06T15:13:03;13.40;48.50
60701;DHT22;46541;49.894;10.886;2023-04-06T15:15:29;13.40;48.20
60701;DHT22;46541;49.894;10.886;2023-04-06T15:17:56;13.30;48.80
60701;DHT22;46541;49.894;10.886;2023-04-06T15:20:23;13.30;48.90
60701;DHT22;46541;49.894;10.886;2023-04-06T15:22:50;13.30;48.80
60701;DHT22;46541;49.894;10.886;2023-04-06T15:25:16;13.30;47.80
60701;DHT22;46541;49.894;10.886;2023-04-06T15:27:43;13.30;47.60
60701;DHT22;46541;49.894;10.886;2023-04-06T15:30:10;13.30;48.10
60701;DHT22;46541;49.894;10.886;2023-04-06T15:32:37;13.40;48.90
60701;DHT22;46541;49.894;10.886;2023-04-06T15:35:10;13.40;48.10
60701;DHT22;46541;49.894;10.886;2023-04-06T15:37:38;13.40;47.10
60701;DHT22;46541;49.894;10.886;2023-04-06T15:40:05;13.40;47.90
60701;DHT22;46541;49.894;10.886;2023-04-06T15:42:32;13.40;47.60
60701;DHT22;46541;49.894;10.886;2023-04-06T15:44:59;13.30;47.00